Time;durP1;ratioP1;P1;durP2;ratioP2;P2;SDS_P1;SDS_P2;PMS_P1;PMS_P2;Temp;Humidity;BMP_temperature;BMP_pressure;BME280_temperature;BME280_humidity;BME280_pressure;Samples;Min_cycle;Max_cycle;Signal;HPM_P1;HPM_P2
2022/06/23 00:01:18;;;;;;;13.15;6.55;;;20.90;99.90;;;;;;5035774;28;20681;-65
2022/06/23 00:03:48;;;;;;;13.63;6.43;;;20.80;99.90;;;;;;5032364;28;20681;-66
2022/06/23 00:06:57;;;;;;;13.57;7.30;;;20.90;99.90;;;;;;5034573;28;20215;-66
2022/06/23 00:09:36;;;;;;;12.67;5.93;;;20.80;99.90;;;;;;5042439;28;20201;-66
2022/06/23 00:12:19;;;;;;;14.93;6.70;;;20.70;99.90;;;;;;5035596;28;20386;-66
2022/06/23 00:14:53;;;;;;;16.00;7.10;;;20.60;99.90;;;;;;5033840;28;20229;-65
2022/06/23 00:17:30;;;;;;;14.97;8.77;;;20.60;99.90;;;;;;5032027;28;20215;-66
2022/06/23 00:20:00;;;;;;;17.07;9.53;;;20.60;99.90;;;;;;5046171;28;20219;-65
2022/06/23 00:22:30;;;;;;;14.27;8.93;;;20.60;99.90;;;;;;5041852;28;21738;-65
2022/06/23 00:25:03;;;;;;;15.60;9.10;;;20.70;99.90;;;;;;5031524;28;20711;-66
2022/06/23 00:27:35;;;;;;;15.07;8.10;;;20.70;99.90;;;;;;5038215;28;20214;-65
2022/06/23 00:30:24;;;;;;;14.40;8.47;;;20.70;99.90;;;;;;5042132;28;20199;-65
2022/06/23 00:32:51;;;;;;;15.17;7.13;;;20.70;99.90;;;;;;5033332;28;20314;-66
2022/06/23 00:35:18;;;;;;;16.27;6.90;;;20.60;99.90;;;;;;5030202;28;20227;-65
2022/06/23 00:37:47;;;;;;;16.03;7.23;;;20.60;99.90;;;;;;5036420;28;20215;-65
2022/06/23 00:40:14;;;;;;;13.67;6.73;;;20.50;99.90;;;;;;5037749;28;20187;-66
2022/06/23 00:42:53;;;;;;;18.80;8.83;;;20.40;99.90;;;;;;5033811;28;20191;-65
2022/06/23 00:45:28;;;;;;;17.87;9.00;;;20.40;99.90;;;;;;5031293;28;20218;-66
2022/06/23 00:48:08;;;;;;;16.10;8.40;;;20.40;99.90;;;;;;5032902;28;20586;-65
2022/06/23 00:51:00;;;;;;;21.07;7.83;;;20.30;99.90;;;;;;5027276;28;20298;-66
2022/06/23 00:53:33;;;;;;;16.43;8.10;;;20.30;99.90;;;;;;5039261;28;20229;-65
2022/06/23 00:56:11;;;;;;;16.97;8.50;;;20.20;99.90;;;;;;5041780;28;20823;-66
2022/06/23 00:58:56;;;;;;;18.00;9.43;;;20.20;99.90;;;;;;5037932;28;20218;-66
2022/06/23 01:01:34;;;;;;;18.23;9.40;;;20.20;99.90;;;;;;5031836;28;20195;-66
2022/06/23 01:04:21;;;;;;;16.70;8.53;;;20.20;99.90;;;;;;5041120;28;20187;-65
2022/06/23 01:06:56;;;;;;;17.80;10.23;;;20.30;99.90;;;;;;5039850;28;20253;-65
2022/06/23 01:09:35;;;;;;;18.87;9.00;;;20.20;99.90;;;;;;5035864;28;20209;-65
2022/06/23 01:12:11;;;;;;;20.23;10.00;;;20.10;99.90;;;;;;5045228;28;20206;-66
2022/06/23 01:15:05;;;;;;;16.63;8.90;;;20.10;99.90;;;;;;5033443;28;20227;-66
2022/06/23 01:17:38;;;;;;;19.00;9.70;;;20.00;99.90;;;;;;5025654;28;20222;-66
2022/06/23 01:20:21;;;;;;;20.03;10.23;;;19.90;99.90;;;;;;5036285;28;20199;-65
2022/06/23 01:22:51;;;;;;;18.83;10.30;;;19.90;99.90;;;;;;5040803;28;20195;-66
2022/06/23 01:25:29;;;;;;;22.97;12.07;;;20.00;99.90;;;;;;5033182;28;20230;-66
2022/06/23 01:28:08;;;;;;;17.07;10.80;;;19.90;99.90;;;;;;5038986;28;20203;-66
2022/06/23 01:30:46;;;;;;;20.57;9.90;;;19.70;99.90;;;;;;5039514;28;20202;-66
2022/06/23 01:33:34;;;;;;;20.43;10.30;;;19.60;99.90;;;;;;5040843;28;20205;-66
2022/06/23 01:36:15;;;;;;;21.40;10.33;;;19.60;99.90;;;;;;5035074;28;20221;-66
2022/06/23 01:39:03;;;;;;;18.33;11.33;;;19.50;99.90;;;;;;5039337;28;20222;-65
2022/06/23 01:41:42;;;;;;;21.00;11.27;;;19.50;99.90;;;;;;5044928;28;20207;-66
2022/06/23 01:44:27;;;;;;;24.30;12.93;;;19.50;99.90;;;;;;5036624;28;20228;-66
2022/06/23 01:46:57;;;;;;;23.03;13.00;;;19.50;99.90;;;;;;5036034;28;20210;-66
2022/06/23 01:49:41;;;;;;;23.33;12.53;;;19.50;99.90;;;;;;5026545;28;20203;-66
2022/06/23 01:52:17;;;;;;;26.53;14.07;;;19.30;99.90;;;;;;5033724;28;20202;-66
2022/06/23 01:54:47;;;;;;;24.40;12.27;;;19.30;99.90;;;;;;5040689;28;20230;-66
2022/06/23 01:57:28;;;;;;;22.87;12.53;;;19.10;99.90;;;;;;5038586;28;20206;-66
2022/06/23 02:00:20;;;;;;;16.90;10.67;;;19.00;99.90;;;;;;5030165;28;20199;-66
2022/06/23 02:02:49;;;;;;;21.93;12.27;;;18.90;99.90;;;;;;5035667;28;20569;-66
2022/06/23 02:05:43;;;;;;;19.20;9.97;;;18.80;99.90;;;;;;5029714;28;20223;-66
2022/06/23 02:08:45;;;;;;;23.37;12.47;;;18.80;99.90;;;;;;5031478;28;20202;-66
2022/06/23 02:11:11;;;;;;;25.83;13.50;;;18.80;99.90;;;;;;5035562;28;20206;-65
2022/06/23 02:14:08;;;;;;;23.70;13.37;;;18.80;99.90;;;;;;5036224;28;20207;-66
2022/06/23 02:16:48;;;;;;;27.73;14.70;;;18.80;99.90;;;;;;5032612;28;20208;-66
2022/06/23 02:19:27;;;;;;;26.00;12.90;;;18.80;99.90;;;;;;5029100;28;20219;-66
2022/06/23 02:22:00;;;;;;;24.60;12.13;;;18.90;99.90;;;;;;5033695;28;20198;-66
2022/06/23 02:24:37;;;;;;;19.93;11.63;;;18.80;99.90;;;;;;5045829;28;20230;-66
2022/06/23 02:27:25;;;;;;;16.40;12.07;;;18.80;99.90;;;;;;5036202;28;20690;-66
2022/06/23 02:30:00;;;;;;;24.57;12.63;;;18.60;99.90;;;;;;5032019;28;20207;-65
2022/06/23 02:32:38;;;;;;;24.50;11.63;;;18.60;99.90;;;;;;5039502;28;20190;-66
2022/06/23 02:35:24;;;;;;;22.60;12.03;;;18.70;99.90;;;;;;5040575;28;20241;-65
2022/06/23 02:38:08;;;;;;;21.20;12.83;;;18.60;99.90;;;;;;5036900;28;20222;-65
2022/06/23 02:40:54;;;;;;;26.67;12.77;;;18.70;99.90;;;;;;5037113;28;20733;-66
2022/06/23 02:43:44;;;;;;;23.47;11.97;;;18.80;99.90;;;;;;5033484;28;20207;-66
2022/06/23 02:46:23;;;;;;;24.03;12.13;;;18.80;99.90;;;;;;5043231;28;20222;-66
2022/06/23 02:49:18;;;;;;;26.57;13.33;;;18.80;99.90;;;;;;5042287;28;20221;-66
2022/06/23 02:52:03;;;;;;;23.67;12.93;;;18.80;99.90;;;;;;5034244;28;20200;-66
2022/06/23 02:54:54;;;;;;;22.53;12.90;;;18.80;99.90;;;;;;5033782;28;20256;-66
2022/06/23 02:57:59;;;;;;;19.83;13.03;;;18.80;99.90;;;;;;5035752;28;20191;-66
2022/06/23 03:00:34;;;;;;;20.90;12.20;;;18.80;99.90;;;;;;5009603;28;20192;-66
2022/06/23 03:03:01;;;;;;;21.53;11.37;;;18.90;99.90;;;;;;5040068;28;20756;-66
2022/06/23 03:05:33;;;;;;;20.57;11.33;;;18.90;99.90;;;;;;5044579;28;20284;-68
2022/06/23 03:08:15;;;;;;;20.77;10.97;;;19.00;99.90;;;;;;5037819;28;20199;-67
2022/06/23 03:10:47;;;;;;;26.13;11.87;;;18.90;99.90;;;;;;5042807;28;20206;-68
2022/06/23 03:13:27;;;;;;;16.97;10.27;;;18.80;99.90;;;;;;5039969;28;20243;-68
2022/06/23 03:16:31;;;;;;;15.90;10.77;;;18.80;99.90;;;;;;5042713;28;20233;-68
2022/06/23 03:19:03;;;;;;;16.53;11.13;;;18.80;99.90;;;;;;5036291;28;20241;-68
2022/06/23 03:21:43;;;;;;;18.73;10.17;;;18.80;99.90;;;;;;5037055;28;20575;-68
2022/06/23 03:24:21;;;;;;;15.70;10.27;;;18.70;99.90;;;;;;5036575;28;20725;-69
2022/06/23 03:27:04;;;;;;;21.80;10.07;;;18.70;99.90;;;;;;5035238;28;20206;-68
2022/06/23 03:29:38;;;;;;;19.83;9.93;;;18.70;99.90;;;;;;5041482;28;20214;-69
2022/06/23 03:32:30;;;;;;;22.37;12.40;;;18.60;99.90;;;;;;5038622;28;20197;-68
2022/06/23 03:35:01;;;;;;;19.43;12.07;;;18.60;99.90;;;;;;5043485;28;20210;-68
2022/06/23 03:37:55;;;;;;;20.60;12.70;;;18.60;99.90;;;;;;5039940;28;20199;-68
2022/06/23 03:43:13;;;;;;;23.27;11.13;;;18.70;99.90;;;;;;5042591;28;20192;-66
2022/06/23 03:46:05;;;;;;;22.07;12.00;;;18.60;99.90;;;;;;5038865;28;20673;-66
2022/06/23 03:48:51;;;;;;;14.83;9.03;;;18.60;99.90;;;;;;5038585;28;20230;-65
2022/06/23 03:51:34;;;;;;;19.73;8.93;;;18.70;99.90;;;;;;5048181;28;20233;-66
2022/06/23 03:54:14;;;;;;;14.57;8.00;;;18.80;99.90;;;;;;5038135;28;20211;-65
2022/06/23 03:56:49;;;;;;;13.13;7.47;;;18.70;99.90;;;;;;5034974;28;20585;-66
2022/06/23 03:59:21;;;;;;;11.90;7.60;;;18.70;99.90;;;;;;5035463;28;20263;-66
2022/06/23 04:02:00;;;;;;;16.27;8.97;;;18.70;99.90;;;;;;5032291;28;20570;-66
2022/06/23 04:04:55;;;;;;;18.57;8.83;;;18.70;99.90;;;;;;5040696;28;20218;-66
2022/06/23 04:07:28;;;;;;;17.40;9.40;;;18.80;99.90;;;;;;5036083;28;20202;-66
2022/06/23 04:09:59;;;;;;;15.67;9.13;;;18.80;99.90;;;;;;5035180;28;20202;-66
2022/06/23 04:12:36;;;;;;;12.57;8.20;;;18.80;99.90;;;;;;5036802;28;20674;-66
2022/06/23 04:15:08;;;;;;;18.90;10.13;;;18.90;99.90;;;;;;5033016;28;20234;-66
2022/06/23 04:17:45;;;;;;;19.17;9.90;;;19.00;99.90;;;;;;5044446;28;20210;-66
2022/06/23 04:20:20;;;;;;;18.33;8.97;;;19.10;99.90;;;;;;5034330;28;20669;-65
2022/06/23 04:22:53;;;;;;;16.43;7.80;;;19.20;99.90;;;;;;5033885;28;20703;-65
2022/06/23 04:25:23;;;;;;;20.03;11.33;;;19.40;99.90;;;;;;5039388;28;20223;-66
2022/06/23 04:27:57;;;;;;;17.70;10.10;;;19.50;99.90;;;;;;5034590;28;20657;-65
2022/06/23 04:30:27;;;;;;;13.67;7.23;;;19.50;99.90;;;;;;5031935;28;20560;-66
2022/06/23 04:32:58;;;;;;;14.03;7.90;;;19.60;99.90;;;;;;5037810;28;20198;-67
2022/06/23 04:35:32;;;;;;;13.90;8.10;;;19.70;99.90;;;;;;5034825;28;20640;-68
2022/06/23 04:38:03;;;;;;;15.77;8.00;;;19.70;99.90;;;;;;5030857;28;20589;-68
2022/06/23 04:40:41;;;;;;;15.37;8.00;;;19.80;99.90;;;;;;5034044;28;20577;-68
2022/06/23 04:43:18;;;;;;;13.00;7.83;;;19.80;99.90;;;;;;5030699;28;20187;-68
2022/06/23 04:46:16;;;;;;;14.83;7.93;;;19.90;99.90;;;;;;5031493;28;20658;-69
2022/06/23 04:48:49;;;;;;;17.43;8.50;;;20.10;99.90;;;;;;5033275;28;20751;-69
2022/06/23 04:51:28;;;;;;;14.23;8.07;;;20.10;99.90;;;;;;5036717;28;20571;-65
2022/06/23 04:54:10;;;;;;;15.67;8.23;;;20.20;99.90;;;;;;5033782;28;20206;-65
2022/06/23 04:56:46;;;;;;;15.63;9.67;;;20.20;99.90;;;;;;5031535;28;20586;-66
2022/06/23 04:59:29;;;;;;;16.63;8.40;;;20.30;99.90;;;;;;5026784;28;20260;-65
2022/06/23 05:02:00;;;;;;;18.75;9.25;;;20.40;99.90;;;;;;5029490;28;20199;-66
2022/06/23 05:04:32;;;;;;;19.00;9.82;;;20.50;99.90;;;;;;5027983;28;20223;-66
2022/06/23 05:07:01;;;;;;;19.33;10.45;;;20.60;99.90;;;;;;5029436;28;20195;-66
2022/06/23 05:09:34;;;;;;;21.40;11.60;;;20.70;99.90;;;;;;5031552;28;20584;-65
2022/06/23 05:12:06;;;;;;;14.23;9.25;;;20.80;99.90;;;;;;5032264;28;20662;-66
2022/06/23 05:14:50;;;;;;;15.77;8.40;;;20.90;99.90;;;;;;5043792;28;20235;-66
2022/06/23 05:17:22;;;;;;;17.42;10.43;;;21.10;99.90;;;;;;5029630;28;20661;-66
2022/06/23 05:19:52;;;;;;;14.75;9.50;;;21.30;99.90;;;;;;5031828;28;20224;-66
2022/06/23 05:22:25;;;;;;;17.42;11.15;;;21.40;99.90;;;;;;5038158;28;20195;-66
2022/06/23 05:24:54;;;;;;;20.10;11.10;;;21.50;99.90;;;;;;5039479;28;20219;-66
2022/06/23 05:27:32;;;;;;;20.58;10.70;;;21.60;99.90;;;;;;5035814;28;20202;-65
2022/06/23 05:30:06;;;;;;;20.83;11.07;;;21.80;99.90;;;;;;5036071;28;20194;-66
2022/06/23 05:32:44;;;;;;;22.10;12.30;;;22.00;99.90;;;;;;5038772;28;20202;-68
2022/06/23 05:35:28;;;;;;;22.85;12.27;;;22.20;99.90;;;;;;5037934;28;20226;-68
2022/06/23 05:38:20;;;;;;;20.50;11.40;;;22.40;99.90;;;;;;5032324;28;20210;-68
2022/06/23 05:40:55;;;;;;;26.92;12.07;;;22.50;99.90;;;;;;5027463;28;20204;-68
2022/06/23 05:43:24;;;;;;;26.27;13.63;;;22.70;99.90;;;;;;5030723;28;20256;-68
2022/06/23 05:45:58;;;;;;;26.85;14.15;;;22.70;99.90;;;;;;5034752;28;20215;-68
2022/06/23 05:48:34;;;;;;;28.60;14.98;;;22.80;99.90;;;;;;5025348;28;20199;-68
2022/06/23 05:51:10;;;;;;;29.30;14.88;;;22.80;99.90;;;;;;5034289;28;20218;-68
2022/06/23 05:54:00;;;;;;;22.02;13.73;;;22.80;99.90;;;;;;5030040;28;20199;-68
2022/06/23 05:56:41;;;;;;;27.05;13.73;;;22.90;99.90;;;;;;5036811;28;20200;-68
2022/06/23 05:59:21;;;;;;;27.65;13.50;;;22.90;99.90;;;;;;5045584;28;20218;-68
2022/06/23 06:02:12;;;;;;;22.77;13.15;;;22.90;99.90;;;;;;5029175;28;20196;-68
2022/06/23 06:04:52;;;;;;;25.40;15.02;;;23.00;99.90;;;;;;5036262;28;20783;-67
2022/06/23 06:07:22;;;;;;;27.15;14.73;;;23.00;99.90;;;;;;5025719;28;20194;-71
2022/06/23 06:09:50;;;;;;;23.80;13.60;;;22.80;99.90;;;;;;5033190;28;20210;-69
2022/06/23 06:12:22;;;;;;;22.50;12.57;;;22.80;99.90;;;;;;5040328;28;20217;-70
2022/06/23 06:14:59;;;;;;;24.50;14.38;;;22.90;99.90;;;;;;5036130;28;20222;-68
2022/06/23 06:17:29;;;;;;;31.42;14.52;;;23.00;99.90;;;;;;5040877;28;20214;-70
2022/06/23 06:20:01;;;;;;;24.50;13.88;;;23.20;99.90;;;;;;5044969;28;20665;-68
2022/06/23 06:22:48;;;;;;;26.85;14.10;;;23.30;99.90;;;;;;5032426;28;20205;-68
2022/06/23 06:25:26;;;;;;;26.50;13.75;;;23.70;99.90;;;;;;5039421;28;20222;-70
2022/06/23 06:27:55;;;;;;;30.83;13.15;;;23.60;99.90;;;;;;5042240;28;20211;-68
2022/06/23 06:30:32;;;;;;;22.15;11.82;;;23.60;99.90;;;;;;5039053;28;20203;-69
2022/06/23 06:32:59;;;;;;;23.27;12.13;;;23.70;99.90;;;;;;5030768;28;20203;-68
2022/06/23 06:35:41;;;;;;;25.80;11.68;;;23.70;99.90;;;;;;5039173;28;20932;-68
2022/06/23 06:38:17;;;;;;;23.65;10.15;;;23.80;99.90;;;;;;5032455;28;20207;-69
2022/06/23 06:40:47;;;;;;;22.98;10.77;;;23.80;99.90;;;;;;5043382;28;20221;-69
2022/06/23 06:43:24;;;;;;;19.80;10.10;;;23.80;99.90;;;;;;5041076;28;20281;-69
2022/06/23 06:45:51;;;;;;;22.35;11.75;;;24.00;99.90;;;;;;5042355;28;20222;-68
2022/06/23 06:48:31;;;;;;;19.23;11.15;;;24.00;99.90;;;;;;5035936;28;20572;-69
2022/06/23 06:51:05;;;;;;;19.98;10.48;;;24.10;99.90;;;;;;5036142;28;20236;-69
2022/06/23 06:53:40;;;;;;;21.85;10.88;;;24.30;99.90;;;;;;5037627;28;20221;-68
2022/06/23 06:56:18;;;;;;;16.08;9.55;;;24.50;99.90;;;;;;5042149;28;20306;-69
2022/06/23 06:58:57;;;;;;;16.25;8.82;;;24.60;99.90;;;;;;5041035;28;20197;-69
2022/06/23 07:01:26;;;;;;;14.15;8.52;;;24.80;99.90;;;;;;5040772;28;20286;-68
2022/06/23 07:03:55;;;;;;;14.88;8.70;;;25.20;99.90;;;;;;5039850;28;20195;-67
2022/06/23 07:06:31;;;;;;;13.68;7.90;;;25.40;99.90;;;;;;5030773;28;20202;-67
2022/06/23 07:09:28;;;;;;;13.32;8.30;;;25.90;99.90;;;;;;5030728;28;20230;-68
2022/06/23 07:12:11;;;;;;;15.40;8.20;;;26.70;99.90;;;;;;5031763;28;20597;-68
2022/06/23 07:14:52;;;;;;;16.15;7.80;;;27.70;99.90;;;;;;5037398;28;20237;-67
2022/06/23 07:17:28;;;;;;;14.23;7.97;;;28.50;99.90;;;;;;5034174;28;20218;-69
2022/06/23 07:20:04;;;;;;;14.38;6.90;;;28.90;99.90;;;;;;5035793;28;20701;-67
2022/06/23 07:22:53;;;;;;;14.45;9.00;;;29.60;99.90;;;;;;5028546;28;20199;-68
2022/06/23 07:25:48;;;;;;;16.13;8.50;;;29.80;99.90;;;;;;5044282;28;20225;-66
2022/06/23 07:28:40;;;;;;;11.60;7.45;;;30.20;99.90;;;;;;5038967;28;20198;-65
2022/06/23 07:31:16;;;;;;;12.00;7.38;;;30.40;99.90;;;;;;5043512;28;20202;-65
2022/06/23 07:33:52;;;;;;;20.27;8.48;;;30.60;99.90;;;;;;5038977;28;20201;-67
2022/06/23 07:36:31;;;;;;;11.65;7.70;;;30.60;99.90;;;;;;5033553;28;20213;-67
2022/06/23 07:39:07;;;;;;;14.90;7.32;;;30.70;99.90;;;;;;5037886;28;20237;-68
2022/06/23 07:41:41;;;;;;;15.93;8.45;;;30.90;99.90;;;;;;5033803;28;20583;-66
2022/06/23 07:44:20;;;;;;;16.30;8.20;;;30.90;99.90;;;;;;5032181;28;20727;-65
2022/06/23 07:46:47;;;;;;;13.77;8.13;;;30.80;99.90;;;;;;5032956;28;20202;-64
2022/06/23 07:49:19;;;;;;;17.73;8.50;;;30.50;99.90;;;;;;5029440;28;20226;-64
2022/06/23 07:51:46;;;;;;;17.90;8.43;;;30.60;99.90;;;;;;5036970;28;20202;-64
2022/06/23 07:54:17;;;;;;;16.88;8.50;;;30.50;99.90;;;;;;5040041;28;20217;-64
2022/06/23 07:56:44;;;;;;;16.42;9.93;;;30.40;99.90;;;;;;5046278;28;20198;-65
2022/06/23 07:59:14;;;;;;;14.90;9.23;;;30.20;99.90;;;;;;5038825;28;20229;-65
2022/06/23 08:02:02;;;;;;;13.32;9.80;;;30.30;99.90;;;;;;5032954;28;20190;-65
2022/06/23 08:04:56;;;;;;;13.55;8.43;;;30.10;99.90;;;;;;5036573;28;20317;-64
2022/06/23 08:07:24;;;;;;;16.75;8.15;;;30.10;99.90;;;;;;5039629;28;20226;-65
2022/06/23 08:09:55;;;;;;;14.25;8.88;;;30.10;99.90;;;;;;5037180;28;20288;-65
2022/06/23 08:12:55;;;;;;;11.65;7.50;;;30.10;99.90;;;;;;5036616;28;20198;-65
2022/06/23 08:18:37;;;;;;;15.30;8.55;;;30.00;99.90;;;;;;5033236;28;20198;-68
2022/06/23 08:21:14;;;;;;;14.50;8.85;;;30.00;99.90;;;;;;5022200;28;20230;-65
2022/06/23 08:23:51;;;;;;;14.60;8.45;;;29.80;99.90;;;;;;5029169;28;20212;-65
2022/06/23 08:26:21;;;;;;;13.75;8.40;;;29.80;99.90;;;;;;5033322;28;22677;-65
2022/06/23 08:28:50;;;;;;;21.05;9.25;;;29.70;99.90;;;;;;5030730;28;20203;-68
2022/06/23 08:31:18;;;;;;;16.02;7.63;;;29.60;99.90;;;;;;5030432;28;20221;-69
2022/06/23 08:34:06;;;;;;;19.50;8.60;;;29.40;99.90;;;;;;5031380;28;20249;-65
2022/06/23 08:36:46;;;;;;;14.07;7.97;;;29.30;99.90;;;;;;5030745;28;20191;-65
2022/06/23 08:39:17;;;;;;;13.35;7.65;;;29.30;99.90;;;;;;5021663;28;20218;-67
2022/06/23 08:41:46;;;;;;;11.10;7.45;;;29.30;99.90;;;;;;5035106;28;20206;-67
2022/06/23 08:44:57;;;;;;;13.57;7.10;;;29.40;99.90;;;;;;5041815;28;20211;-66
2022/06/23 08:47:44;;;;;;;14.57;6.78;;;29.50;99.90;;;;;;5034209;28;20239;-67
2022/06/23 08:50:23;;;;;;;11.93;6.63;;;29.60;99.90;;;;;;5037846;28;20634;-66
2022/06/23 08:53:04;;;;;;;17.83;7.43;;;29.50;99.90;;;;;;5038071;28;20199;-67
2022/06/23 08:55:44;;;;;;;17.50;7.30;;;29.50;99.90;;;;;;5026171;28;20235;-67
2022/06/23 08:58:21;;;;;;;12.23;6.80;;;29.60;99.90;;;;;;5040882;28;20681;-67
2022/06/23 09:01:12;;;;;;;14.32;6.20;;;29.60;99.90;;;;;;5040283;28;20223;-66
2022/06/23 09:04:04;;;;;;;17.25;6.95;;;29.60;99.90;;;;;;5034736;28;20580;-67
2022/06/23 09:06:42;;;;;;;11.88;6.00;;;29.70;99.90;;;;;;5036312;28;20736;-66
2022/06/23 09:09:19;;;;;;;11.00;6.38;;;29.70;99.90;;;;;;5035885;28;20214;-67
2022/06/23 09:12:10;;;;;;;11.38;6.20;;;29.70;99.90;;;;;;5028661;28;20198;-67
2022/06/23 09:14:55;;;;;;;13.75;6.00;;;29.90;99.90;;;;;;5037407;28;20226;-66
2022/06/23 09:17:50;;;;;;;16.45;6.45;;;30.10;99.90;;;;;;5034188;28;20210;-66
2022/06/23 09:20:38;;;;;;;10.30;5.97;;;30.30;99.90;;;;;;5039162;28;20218;-68
2022/06/23 09:23:42;;;;;;;12.07;6.20;;;30.50;99.90;;;;;;5037535;28;20198;-68
2022/06/23 09:26:27;;;;;;;10.05;6.80;;;30.50;99.90;;;;;;5036494;28;20724;-67
2022/06/23 09:28:57;;;;;;;11.35;6.30;;;30.40;99.90;;;;;;5035265;28;20579;-67
2022/06/23 09:31:48;;;;;;;11.07;6.38;;;30.30;99.90;;;;;;5032379;28;20207;-66
2022/06/23 09:34:27;;;;;;;9.75;6.00;;;30.40;99.90;;;;;;5040903;28;20223;-66
2022/06/23 09:37:02;;;;;;;12.93;6.40;;;30.20;99.90;;;;;;5040576;28;20586;-65
2022/06/23 09:39:55;;;;;;;12.93;6.20;;;30.10;99.90;;;;;;5041276;28;20575;-66
2022/06/23 09:42:45;;;;;;;11.77;5.82;;;30.20;99.90;;;;;;5038793;28;20654;-66
2022/06/23 09:45:32;;;;;;;11.02;6.20;;;30.20;99.90;;;;;;5045126;28;20225;-66
2022/06/23 09:48:20;;;;;;;13.52;6.18;;;30.30;99.90;;;;;;5039384;28;20206;-65
2022/06/23 09:51:06;;;;;;;11.57;6.03;;;30.40;99.90;;;;;;5037349;28;20280;-67
2022/06/23 09:53:53;;;;;;;12.52;6.32;;;30.60;99.90;;;;;;5045606;28;20198;-66
2022/06/23 09:56:30;;;;;;;13.65;6.25;;;30.50;99.90;;;;;;5040129;28;20200;-66
2022/06/23 09:59:24;;;;;;;12.02;6.70;;;30.60;99.90;;;;;;5038138;28;20212;-65
2022/06/23 10:02:20;;;;;;;14.20;6.72;;;30.80;99.90;;;;;;5040580;28;20198;-66
2022/06/23 10:04:49;;;;;;;10.75;6.63;;;30.90;99.90;;;;;;5043398;28;20801;-66
2022/06/23 10:07:37;;;;;;;9.70;5.93;;;31.00;99.90;;;;;;5034401;28;20206;-66
2022/06/23 10:10:27;;;;;;;9.25;6.63;;;31.10;99.90;;;;;;5040047;28;20202;-66
2022/06/23 10:13:03;;;;;;;12.88;6.60;;;31.40;99.90;;;;;;5036828;28;20587;-66
2022/06/23 10:15:49;;;;;;;10.25;7.00;;;31.30;99.90;;;;;;5032018;28;20245;-66
2022/06/23 10:18:37;;;;;;;12.75;6.35;;;31.30;99.90;;;;;;5043123;28;20206;-66
2022/06/23 10:21:15;;;;;;;10.68;6.78;;;31.40;99.90;;;;;;5040932;28;20223;-66
2022/06/23 10:23:59;;;;;;;11.00;6.45;;;31.50;99.90;;;;;;5045741;28;20194;-68
2022/06/23 10:26:58;;;;;;;10.52;7.43;;;31.60;99.90;;;;;;5040447;28;20191;-69
2022/06/23 10:29:49;;;;;;;16.48;6.97;;;31.60;99.90;;;;;;5032546;28;20333;-67
2022/06/23 10:32:57;;;;;;;15.50;6.85;;;31.70;99.90;;;;;;5039281;28;20934;-70
2022/06/23 10:36:01;;;;;;;13.50;6.88;;;31.60;99.90;;;;;;5037366;28;20241;-70
2022/06/23 10:38:57;;;;;;;11.02;7.38;;;31.70;99.90;;;;;;5044954;28;20547;-70
2022/06/23 10:41:53;;;;;;;11.35;7.28;;;31.90;99.90;;;;;;5039840;28;20237;-69
2022/06/23 10:45:02;;;;;;;13.57;7.22;;;32.10;99.90;;;;;;5039139;28;21805;-70
2022/06/23 10:48:12;;;;;;;13.13;7.10;;;32.00;99.90;;;;;;5040559;28;20199;-70
2022/06/23 10:51:04;;;;;;;10.82;7.05;;;32.10;99.90;;;;;;5037927;28;20221;-69
2022/06/23 10:53:48;;;;;;;13.02;6.78;;;32.10;99.90;;;;;;5038686;28;20408;-70
2022/06/23 10:56:33;;;;;;;13.27;7.30;;;32.20;99.90;;;;;;5031050;28;20500;-71
2022/06/23 10:59:32;;;;;;;15.43;7.80;;;32.20;99.90;;;;;;5031958;28;20570;-72
2022/06/23 11:02:23;;;;;;;12.98;6.85;;;32.30;99.90;;;;;;5026420;28;20755;-69
2022/06/23 11:05:01;;;;;;;13.05;7.18;;;32.30;99.90;;;;;;5030190;28;20313;-69
2022/06/23 11:07:47;;;;;;;10.75;7.25;;;32.30;99.90;;;;;;5031918;28;20189;-68
2022/06/23 11:10:37;;;;;;;15.00;7.07;;;32.40;99.90;;;;;;5030953;28;20677;-68
2022/06/23 11:13:09;;;;;;;11.07;7.22;;;32.40;99.90;;;;;;5018256;28;20203;-70
2022/06/23 11:15:51;;;;;;;9.95;7.00;;;32.50;99.90;;;;;;5031481;28;20235;-69
2022/06/23 11:18:43;;;;;;;11.35;6.88;;;32.50;99.90;;;;;;5033536;28;20669;-68
2022/06/23 11:21:26;;;;;;;10.63;6.85;;;32.50;99.90;;;;;;5032610;28;20516;-68
2022/06/23 11:24:16;;;;;;;15.25;7.85;;;32.70;99.90;;;;;;5036818;28;20202;-70
2022/06/23 11:26:55;;;;;;;12.82;6.82;;;32.70;99.90;;;;;;5032121;28;20669;-70
2022/06/23 11:29:42;;;;;;;14.45;6.97;;;32.90;99.90;;;;;;5037287;28;20221;-68
2022/06/23 11:32:34;;;;;;;13.30;6.20;;;33.00;99.90;;;;;;5023920;28;20207;-69
2022/06/23 11:35:22;;;;;;;9.43;6.05;;;33.10;99.90;;;;;;5038969;28;20579;-70
2022/06/23 11:38:04;;;;;;;10.27;5.78;;;33.30;99.90;;;;;;5041600;28;20202;-68
2022/06/23 11:40:45;;;;;;;9.10;5.93;;;33.10;99.90;;;;;;5037971;28;20222;-68
2022/06/23 11:43:23;;;;;;;11.05;5.82;;;33.10;99.90;;;;;;5036698;28;20566;-70
2022/06/23 11:46:12;;;;;;;13.23;6.43;;;33.20;99.90;;;;;;5030877;28;20214;-69
2022/06/23 11:48:51;;;;;;;9.80;6.07;;;33.20;99.90;;;;;;5038316;28;20229;-67
2022/06/23 11:51:59;;;;;;;10.27;6.03;;;33.40;99.90;;;;;;5034304;28;20668;-70
2022/06/23 11:54:37;;;;;;;11.07;6.18;;;33.40;99.90;;;;;;5029912;28;20221;-70
2022/06/23 11:57:14;;;;;;;9.38;6.35;;;33.60;99.90;;;;;;5038793;28;20678;-68
2022/06/23 11:59:41;;;;;;;12.38;6.45;;;33.50;99.90;;;;;;5027778;28;20542;-70
2022/06/23 12:02:28;;;;;;;13.55;6.38;;;33.50;99.90;;;;;;5025791;28;20203;-69
2022/06/23 12:05:31;;;;;;;9.00;6.28;;;33.30;99.90;;;;;;5039348;28;20219;-69
2022/06/23 12:08:30;;;;;;;11.73;6.68;;;33.40;99.90;;;;;;5036984;28;20196;-70
2022/06/23 12:10:56;;;;;;;12.68;6.55;;;33.40;99.90;;;;;;5038535;28;20203;-69
2022/06/23 12:13:26;;;;;;;11.18;6.40;;;33.50;99.90;;;;;;5027771;28;21210;-69
2022/06/23 12:15:55;;;;;;;15.73;6.25;;;33.50;99.90;;;;;;5035735;28;20775;-69
2022/06/23 12:18:30;;;;;;;12.50;6.50;;;33.50;99.90;;;;;;5033774;28;20691;-69
2022/06/23 12:21:09;;;;;;;10.35;6.70;;;33.60;99.90;;;;;;5040238;28;20226;-68
2022/06/23 12:23:43;;;;;;;11.68;6.93;;;33.60;99.90;;;;;;5029709;28;20198;-71
2022/06/23 12:26:35;;;;;;;11.00;7.00;;;33.70;99.90;;;;;;5035444;28;20218;-67
2022/06/23 12:29:19;;;;;;;12.45;6.97;;;33.80;99.90;;;;;;5022450;28;20790;-69
2022/06/23 12:32:11;;;;;;;11.15;6.70;;;33.80;99.90;;;;;;5038870;28;20689;-69
2022/06/23 12:34:56;;;;;;;11.57;6.68;;;33.80;99.90;;;;;;5033447;28;20368;-69
2022/06/23 12:37:42;;;;;;;10.65;6.43;;;33.80;99.90;;;;;;5037182;28;20846;-67
2022/06/23 12:40:14;;;;;;;12.15;7.40;;;33.90;99.90;;;;;;5030778;28;20210;-68
2022/06/23 12:42:52;;;;;;;10.85;6.95;;;33.90;99.90;;;;;;5029145;28;20207;-68
2022/06/23 12:45:31;;;;;;;12.82;6.50;;;34.00;99.90;;;;;;5029615;28;20227;-68
2022/06/23 12:48:16;;;;;;;14.00;6.63;;;33.90;99.90;;;;;;5025711;28;20199;-69
2022/06/23 12:50:57;;;;;;;10.52;6.40;;;34.00;99.90;;;;;;5039785;28;21137;-69
2022/06/23 12:53:59;;;;;;;12.20;6.30;;;33.90;99.90;;;;;;5035654;28;20399;-68
2022/06/23 12:56:32;;;;;;;8.00;6.32;;;33.90;99.90;;;;;;5039277;28;20202;-67
2022/06/23 12:59:11;;;;;;;11.63;6.13;;;34.00;99.90;;;;;;5034168;28;20206;-69
2022/06/23 13:02:03;;;;;;;10.98;6.45;;;34.10;99.90;;;;;;5036666;28;20218;-67
2022/06/23 13:05:00;;;;;;;13.90;7.10;;;34.20;99.90;;;;;;5029759;28;20237;-68
2022/06/23 13:08:11;;;;;;;11.27;5.97;;;34.40;99.90;;;;;;5035644;28;20681;-69
2022/06/23 13:10:45;;;;;;;12.05;6.43;;;34.40;99.90;;;;;;5029595;28;20210;-67
2022/06/23 13:13:43;;;;;;;11.40;6.45;;;34.40;99.90;;;;;;5039444;28;20205;-67
2022/06/23 13:16:25;;;;;;;12.65;5.95;;;34.30;99.90;;;;;;5033119;28;20234;-68
2022/06/23 13:19:05;;;;;;;11.13;6.60;;;34.20;99.90;;;;;;5041641;28;20200;-66
2022/06/23 13:21:34;;;;;;;9.70;6.43;;;34.10;99.90;;;;;;5038001;28;20213;-69
2022/06/23 13:24:12;;;;;;;10.13;6.25;;;34.20;99.90;;;;;;5037246;28;20210;-67
2022/06/23 13:26:47;;;;;;;10.48;5.70;;;34.00;99.90;;;;;;5038264;28;20199;-68
2022/06/23 13:29:17;;;;;;;13.23;5.60;;;34.10;99.90;;;;;;5031686;28;20210;-67
2022/06/23 13:31:52;;;;;;;10.90;5.70;;;34.10;99.90;;;;;;5046299;28;20486;-67
2022/06/23 13:34:32;;;;;;;10.93;5.70;;;34.20;99.90;;;;;;5035213;28;20712;-66
2022/06/23 13:37:13;;;;;;;9.93;5.30;;;34.20;99.90;;;;;;5046133;28;20202;-67
2022/06/23 13:39:53;;;;;;;7.47;5.15;;;34.40;99.90;;;;;;5033861;28;20218;-67
2022/06/23 13:42:29;;;;;;;10.30;4.88;;;34.50;99.90;;;;;;5038402;28;20289;-66
2022/06/23 13:45:07;;;;;;;9.20;5.05;;;34.60;99.90;;;;;;5031962;28;20589;-66
2022/06/23 13:47:43;;;;;;;9.35;5.45;;;34.40;99.90;;;;;;5039988;28;20656;-68